UKV522 EGKK-LEZL
Flight info
| Callsign | UKV522 |
|---|---|
| Flight time | N/A |
| Altitude | 35000 |
| Route | NOVM1X NOVMA L620 SAM M195 MARUK N621 LELNA DCT NOVAN DCT DELOG DCT VADOX DCT SNR DCT TITAN DCT RATAS DCT NEA DCT NONTU DCT ORBIS DCT DISKO DCT TLD DCT DOPEN DCT MONTO DCT MOLIN DCT HIJ HIJ4E |
| Aircraft | A321/M-SDE3FGIKRWXY/S |
Departure
| Time | 2026-04-18 10:30 |
|---|---|
| Airport | London Gatwick Airport (EGKK) |
Arrival
| Time | N/A |
|---|---|
| Airport | Seville Airport (LEZL) |
| Time | Latitude | Longitude | Altitude | Speed | Heading |
|---|---|---|---|---|---|
| 2026-04-18 10:10 | 51.15640 | -0.17849 | 208 ft | 0 kts | 167° |
| 2026-04-18 10:21 | 51.15642 | -0.17850 | 204 ft | 2 kts | 167° |
| 2026-04-18 10:21 | 51.15668 | -0.17861 | 207 ft | 4 kts | 158° |
| 2026-04-18 10:21 | 51.15691 | -0.17881 | 205 ft | 4 kts | 139° |
| 2026-04-18 10:22 | 51.15705 | -0.17911 | 213 ft | 4 kts | 88° |
| 2026-04-18 10:22 | 51.15705 | -0.17920 | 204 ft | 0 kts | 78° |
| 2026-04-18 10:24 | 51.15710 | -0.17884 | 212 ft | 6 kts | 78° |
| 2026-04-18 10:25 | 51.15719 | -0.17810 | 207 ft | 7 kts | 78° |
| 2026-04-18 10:25 | 51.15731 | -0.17725 | 204 ft | 8 kts | 78° |
| 2026-04-18 10:25 | 51.15744 | -0.17628 | 207 ft | 10 kts | 78° |
| 2026-04-18 10:25 | 51.15749 | -0.17521 | 206 ft | 10 kts | 112° |
| 2026-04-18 10:26 | 51.15692 | -0.17488 | 212 ft | 9 kts | 167° |
| 2026-04-18 10:26 | 51.15624 | -0.17464 | 209 ft | 10 kts | 167° |
| 2026-04-18 10:26 | 51.15574 | -0.17447 | 212 ft | 11 kts | 167° |
| 2026-04-18 10:26 | 51.15470 | -0.17410 | 204 ft | 10 kts | 167° |
| 2026-04-18 10:27 | 51.15401 | -0.17386 | 206 ft | 11 kts | 168° |
| 2026-04-18 10:27 | 51.15350 | -0.17369 | 206 ft | 11 kts | 168° |
| 2026-04-18 10:27 | 51.15270 | -0.17339 | 207 ft | 12 kts | 162° |
| 2026-04-18 10:27 | 51.15197 | -0.17264 | 208 ft | 12 kts | 142° |
| 2026-04-18 10:28 | 51.15184 | -0.17172 | 206 ft | 9 kts | 77° |
| 2026-04-18 10:28 | 51.15199 | -0.17063 | 205 ft | 11 kts | 77° |
| 2026-04-18 10:28 | 51.15216 | -0.16942 | 212 ft | 12 kts | 77° |
| 2026-04-18 10:28 | 51.15220 | -0.16826 | 209 ft | 9 kts | 115° |
| 2026-04-18 10:29 | 51.15161 | -0.16784 | 215 ft | 11 kts | 173° |
| 2026-04-18 10:29 | 51.15114 | -0.16854 | 214 ft | 10 kts | 259° |
| 2026-04-18 10:29 | 51.15112 | -0.16870 | 212 ft | 2 kts | 257° |
| 2026-04-18 10:29 | 51.15073 | -0.17162 | 208 ft | 62 kts | 258° |
| 2026-04-18 10:30 | 51.14932 | -0.18189 | 208 ft | 126 kts | 258° |
| 2026-04-18 10:30 | 51.14705 | -0.19809 | 308 ft | 165 kts | 260° |
| 2026-04-18 10:30 | 51.14454 | -0.21594 | 1002 ft | 164 kts | 261° |
| 2026-04-18 10:30 | 51.14211 | -0.23360 | 1761 ft | 163 kts | 260° |
| 2026-04-18 10:31 | 51.13965 | -0.25163 | 2288 ft | 174 kts | 261° |
| 2026-04-18 10:31 | 51.13693 | -0.27183 | 2532 ft | 199 kts | 260° |
| 2026-04-18 10:31 | 51.13381 | -0.29468 | 2872 ft | 223 kts | 259° |
| 2026-04-18 10:31 | 51.13033 | -0.31996 | 3283 ft | 243 kts | 259° |
| 2026-04-18 10:32 | 51.12663 | -0.34671 | 3952 ft | 250 kts | 259° |
| 2026-04-18 10:32 | 51.12285 | -0.37382 | 4790 ft | 252 kts | 258° |
| 2026-04-18 10:32 | 51.11868 | -0.40109 | 5600 ft | 255 kts | 256° |
| 2026-04-18 10:32 | 51.11420 | -0.42812 | 5915 ft | 256 kts | 256° |
| 2026-04-18 10:33 | 51.10949 | -0.45568 | 5998 ft | 254 kts | 255° |
| 2026-04-18 10:33 | 51.10480 | -0.48286 | 6008 ft | 254 kts | 255° |
| 2026-04-18 10:33 | 51.10019 | -0.50963 | 6010 ft | 254 kts | 256° |
| 2026-04-18 10:33 | 51.09554 | -0.53675 | 6049 ft | 256 kts | 255° |
| 2026-04-18 10:34 | 51.09080 | -0.56441 | 6821 ft | 256 kts | 255° |
| 2026-04-18 10:34 | 51.08619 | -0.59137 | 7647 ft | 256 kts | 255° |
| 2026-04-18 10:34 | 51.08150 | -0.61876 | 8425 ft | 258 kts | 255° |
| 2026-04-18 10:34 | 51.07676 | -0.64638 | 9205 ft | 260 kts | 254° |
| 2026-04-18 10:35 | 51.07198 | -0.67422 | 9956 ft | 262 kts | 254° |
| 2026-04-18 10:35 | 51.06706 | -0.70301 | 10313 ft | 280 kts | 254° |
| 2026-04-18 10:35 | 51.06173 | -0.73419 | 10459 ft | 303 kts | 254° |
| 2026-04-18 10:35 | 51.05598 | -0.76769 | 10632 ft | 323 kts | 254° |
| 2026-04-18 10:36 | 51.04997 | -0.80252 | 11153 ft | 329 kts | 254° |
| 2026-04-18 10:36 | 51.04391 | -0.83769 | 11831 ft | 331 kts | 254° |
| 2026-04-18 10:36 | 51.03780 | -0.87307 | 12532 ft | 333 kts | 254° |
| 2026-04-18 10:36 | 51.03164 | -0.90869 | 13265 ft | 334 kts | 253° |
| 2026-04-18 10:37 | 51.02548 | -0.94440 | 13992 ft | 336 kts | 254° |
| 2026-04-18 10:37 | 51.01935 | -0.97986 | 14619 ft | 338 kts | 254° |
| 2026-04-18 10:37 | 51.01308 | -1.01592 | 15253 ft | 340 kts | 253° |
| 2026-04-18 10:37 | 51.00674 | -1.05235 | 15882 ft | 342 kts | 254° |
| 2026-04-18 10:38 | 51.00036 | -1.08889 | 16507 ft | 345 kts | 253° |
| 2026-04-18 10:38 | 50.99392 | -1.12575 | 17126 ft | 347 kts | 253° |
| 2026-04-18 10:38 | 50.98740 | -1.16289 | 17761 ft | 350 kts | 253° |
| 2026-04-18 10:38 | 50.98081 | -1.20014 | 18388 ft | 352 kts | 253° |
| 2026-04-18 10:39 | 50.97419 | -1.23767 | 18937 ft | 355 kts | 253° |
| 2026-04-18 10:39 | 50.96753 | -1.27550 | 19475 ft | 357 kts | 253° |
| 2026-04-18 10:39 | 50.95851 | -1.31229 | 20006 ft | 359 kts | 243° |
| 2026-04-18 10:39 | 50.94472 | -1.34561 | 20503 ft | 363 kts | 232° |
| 2026-04-18 10:40 | 50.92669 | -1.37391 | 21019 ft | 369 kts | 221° |
| 2026-04-18 10:40 | 50.90541 | -1.39715 | 21516 ft | 373 kts | 217° |
| 2026-04-18 10:40 | 50.88363 | -1.41977 | 22016 ft | 376 kts | 217° |
| 2026-04-18 10:40 | 50.86171 | -1.44253 | 22459 ft | 378 kts | 217° |
| 2026-04-18 10:41 | 50.83961 | -1.46545 | 22909 ft | 381 kts | 217° |
| 2026-04-18 10:41 | 50.81732 | -1.48857 | 23361 ft | 383 kts | 217° |
| 2026-04-18 10:41 | 50.79493 | -1.51175 | 23812 ft | 386 kts | 217° |
| 2026-04-18 10:41 | 50.77234 | -1.53509 | 24187 ft | 388 kts | 217° |
| 2026-04-18 10:42 | 50.74972 | -1.55844 | 24572 ft | 390 kts | 217° |
| 2026-04-18 10:42 | 50.72695 | -1.58198 | 24937 ft | 392 kts | 217° |
| 2026-04-18 10:42 | 50.70405 | -1.60566 | 25332 ft | 394 kts | 218° |
| 2026-04-18 10:42 | 50.68112 | -1.62938 | 25705 ft | 396 kts | 218° |
| 2026-04-18 10:43 | 50.65794 | -1.65330 | 26073 ft | 398 kts | 217° |
| 2026-04-18 10:43 | 50.63496 | -1.67695 | 26412 ft | 400 kts | 217° |
| 2026-04-18 10:43 | 50.61153 | -1.70099 | 26734 ft | 403 kts | 217° |
| 2026-04-18 10:43 | 50.58802 | -1.72508 | 27080 ft | 405 kts | 217° |
| 2026-04-18 10:44 | 50.56434 | -1.74932 | 27420 ft | 406 kts | 217° |
| 2026-04-18 10:44 | 50.54064 | -1.77355 | 27749 ft | 408 kts | 217° |
| 2026-04-18 10:44 | 50.51674 | -1.79797 | 28107 ft | 410 kts | 217° |
| 2026-04-18 10:44 | 50.49275 | -1.82248 | 28468 ft | 412 kts | 217° |
| 2026-04-18 10:45 | 50.46866 | -1.84707 | 28816 ft | 414 kts | 217° |
| 2026-04-18 10:45 | 50.44441 | -1.87176 | 29175 ft | 415 kts | 217° |
| 2026-04-18 10:45 | 50.42019 | -1.89642 | 29623 ft | 414 kts | 217° |
| 2026-04-18 10:45 | 50.39604 | -1.92097 | 30072 ft | 413 kts | 217° |
| 2026-04-18 10:46 | 50.37199 | -1.94533 | 30547 ft | 411 kts | 217° |
| 2026-04-18 10:46 | 50.34803 | -1.96955 | 30946 ft | 409 kts | 217° |
| 2026-04-18 10:46 | 50.32412 | -1.99373 | 31306 ft | 409 kts | 217° |
| 2026-04-18 10:46 | 50.30020 | -2.01788 | 31641 ft | 408 kts | 217° |
| 2026-04-18 10:47 | 50.27626 | -2.04189 | 31983 ft | 409 kts | 215° |
| 2026-04-18 10:47 | 50.25054 | -2.06161 | 32310 ft | 416 kts | 206° |
| 2026-04-18 10:47 | 50.22251 | -2.07407 | 32613 ft | 423 kts | 196° |
| 2026-04-18 10:47 | 50.19310 | -2.07932 | 32950 ft | 428 kts | 191° |
| 2026-04-18 10:48 | 50.16335 | -2.08306 | 33248 ft | 427 kts | 192° |
| 2026-04-18 10:48 | 50.13377 | -2.08685 | 33638 ft | 426 kts | 192° |
| 2026-04-18 10:48 | 50.10427 | -2.09065 | 33971 ft | 425 kts | 192° |
| 2026-04-18 10:48 | 50.07479 | -2.09448 | 34279 ft | 425 kts | 192° |
| 2026-04-18 10:49 | 50.04531 | -2.09836 | 34534 ft | 425 kts | 191° |
| 2026-04-18 10:49 | 50.01584 | -2.10224 | 34782 ft | 425 kts | 191° |
| 2026-04-18 10:49 | 49.98648 | -2.10699 | 35015 ft | 422 kts | 196° |
| 2026-04-18 10:49 | 49.95817 | -2.11773 | 35233 ft | 416 kts | 202° |
| 2026-04-18 10:50 | 49.93041 | -2.13080 | 35267 ft | 416 kts | 202° |
| 2026-04-18 10:50 | 49.87512 | -2.15677 | 35300 ft | 414 kts | 202° |
| 2026-04-18 10:51 | 49.82028 | -2.18239 | 35300 ft | 414 kts | 202° |
| 2026-04-18 10:51 | 49.76493 | -2.20815 | 35303 ft | 416 kts | 202° |
| 2026-04-18 10:52 | 49.70946 | -2.23384 | 35285 ft | 414 kts | 202° |
| 2026-04-18 10:52 | 49.65427 | -2.25920 | 35317 ft | 414 kts | 202° |
| 2026-04-18 10:53 | 49.59908 | -2.28471 | 35316 ft | 414 kts | 202° |
| 2026-04-18 10:53 | 49.54381 | -2.31037 | 35320 ft | 415 kts | 202° |
| 2026-04-18 10:54 | 49.48850 | -2.33586 | 35282 ft | 415 kts | 202° |
| 2026-04-18 10:54 | 49.43319 | -2.36122 | 35308 ft | 414 kts | 202° |
| 2026-04-18 10:55 | 49.37802 | -2.38642 | 35320 ft | 414 kts | 202° |
| 2026-04-18 10:55 | 49.32275 | -2.41162 | 35325 ft | 414 kts | 202° |
| 2026-04-18 10:56 | 49.26752 | -2.43677 | 35305 ft | 413 kts | 203° |
| 2026-04-18 10:56 | 49.21245 | -2.46177 | 35317 ft | 412 kts | 203° |
| 2026-04-18 10:57 | 49.15783 | -2.48652 | 35322 ft | 412 kts | 203° |
| 2026-04-18 10:57 | 49.10291 | -2.51147 | 35330 ft | 412 kts | 203° |
| 2026-04-18 10:58 | 49.04791 | -2.53621 | 35298 ft | 411 kts | 202° |
| 2026-04-18 10:58 | 48.99316 | -2.56079 | 35330 ft | 410 kts | 202° |
| 2026-04-18 10:59 | 48.93847 | -2.58542 | 35342 ft | 409 kts | 203° |
| 2026-04-18 10:59 | 48.88392 | -2.60990 | 35343 ft | 408 kts | 202° |
| 2026-04-18 11:00 | 48.82970 | -2.63414 | 35339 ft | 408 kts | 202° |
| 2026-04-18 11:00 | 48.77515 | -2.65844 | 35344 ft | 409 kts | 202° |
| 2026-04-18 11:01 | 48.72057 | -2.68270 | 35336 ft | 409 kts | 202° |
| 2026-04-18 11:01 | 48.66596 | -2.70688 | 35334 ft | 409 kts | 202° |
| 2026-04-18 11:02 | 48.58408 | -2.74322 | 35331 ft | 408 kts | 202° |
| 2026-04-18 11:02 | 48.52959 | -2.76730 | 35333 ft | 408 kts | 202° |
| 2026-04-18 11:03 | 48.47511 | -2.79132 | 35337 ft | 408 kts | 202° |
| 2026-04-18 11:03 | 48.42064 | -2.81525 | 35330 ft | 407 kts | 202° |
| 2026-04-18 11:04 | 48.36627 | -2.83910 | 35313 ft | 407 kts | 202° |
| 2026-04-18 11:04 | 48.31196 | -2.86288 | 35320 ft | 406 kts | 202° |
| 2026-04-18 11:05 | 48.25774 | -2.88658 | 35321 ft | 405 kts | 202° |
| 2026-04-18 11:05 | 48.20356 | -2.91015 | 35325 ft | 405 kts | 202° |
| 2026-04-18 11:06 | 48.14939 | -2.93362 | 35300 ft | 405 kts | 202° |
| 2026-04-18 11:06 | 48.09524 | -2.95718 | 35304 ft | 405 kts | 202° |
| 2026-04-18 11:07 | 48.04114 | -2.98069 | 35332 ft | 405 kts | 202° |
| 2026-04-18 11:07 | 47.98700 | -3.00406 | 35319 ft | 405 kts | 201° |
| 2026-04-18 11:08 | 47.93286 | -3.02732 | 35293 ft | 405 kts | 202° |
| 2026-04-18 11:08 | 47.87883 | -3.05053 | 35302 ft | 404 kts | 202° |
| 2026-04-18 11:09 | 47.83389 | -3.06990 | 35306 ft | 404 kts | 202° |
| 2026-04-18 11:09 | 47.77984 | -3.09311 | 35310 ft | 404 kts | 202° |
| 2026-04-18 11:10 | 47.72578 | -3.11623 | 35285 ft | 404 kts | 201° |
| 2026-04-18 11:10 | 47.67167 | -3.13917 | 35293 ft | 404 kts | 201° |
| 2026-04-18 11:11 | 47.61757 | -3.16215 | 35297 ft | 404 kts | 201° |
| 2026-04-18 11:11 | 47.56348 | -3.18517 | 35301 ft | 404 kts | 201° |
| 2026-04-18 11:12 | 47.50940 | -3.20821 | 35292 ft | 404 kts | 201° |
| 2026-04-18 11:12 | 47.45521 | -3.23111 | 35296 ft | 405 kts | 201° |
| 2026-04-18 11:13 | 47.40106 | -3.25390 | 35312 ft | 405 kts | 201° |
| 2026-04-18 11:13 | 47.34691 | -3.27670 | 35312 ft | 404 kts | 201° |
| 2026-04-18 11:14 | 47.29276 | -3.29949 | 35282 ft | 405 kts | 201° |
| 2026-04-18 11:14 | 47.23854 | -3.32224 | 35300 ft | 405 kts | 201° |
| 2026-04-18 11:15 | 47.18456 | -3.34472 | 35305 ft | 405 kts | 201° |
| 2026-04-18 11:15 | 47.13028 | -3.36738 | 35301 ft | 405 kts | 201° |
| 2026-04-18 11:16 | 47.07601 | -3.39008 | 35304 ft | 406 kts | 201° |
| 2026-04-18 11:16 | 47.02165 | -3.41261 | 35303 ft | 406 kts | 201° |
| 2026-04-18 11:17 | 46.96720 | -3.43515 | 35310 ft | 406 kts | 201° |
| 2026-04-18 11:17 | 46.91278 | -3.45774 | 35298 ft | 407 kts | 200° |
| 2026-04-18 11:18 | 46.85827 | -3.48026 | 35294 ft | 407 kts | 200° |
| 2026-04-18 11:18 | 46.80366 | -3.50275 | 35300 ft | 408 kts | 200° |
| 2026-04-18 11:19 | 46.74893 | -3.52528 | 35313 ft | 408 kts | 200° |
| 2026-04-18 11:19 | 46.69420 | -3.54771 | 35317 ft | 409 kts | 200° |
| 2026-04-18 11:20 | 46.63944 | -3.57012 | 35319 ft | 409 kts | 200° |
| 2026-04-18 11:20 | 46.58491 | -3.59238 | 35320 ft | 409 kts | 200° |
| 2026-04-18 11:21 | 46.52983 | -3.61483 | 35322 ft | 409 kts | 200° |
| 2026-04-18 11:21 | 46.47545 | -3.63711 | 35317 ft | 409 kts | 200° |
| 2026-04-18 11:22 | 46.42060 | -3.65937 | 35314 ft | 409 kts | 200° |
| 2026-04-18 11:22 | 46.36564 | -3.68162 | 35317 ft | 410 kts | 200° |
| 2026-04-18 11:23 | 46.31011 | -3.70108 | 35324 ft | 415 kts | 191° |
| 2026-04-18 11:23 | 46.25245 | -3.70953 | 35304 ft | 416 kts | 191° |
| 2026-04-18 11:24 | 46.19488 | -3.71807 | 35312 ft | 416 kts | 191° |
| 2026-04-18 11:24 | 46.13721 | -3.72678 | 35317 ft | 417 kts | 191° |
| 2026-04-18 11:25 | 46.07941 | -3.73545 | 35290 ft | 418 kts | 191° |
| 2026-04-18 11:25 | 46.02156 | -3.74395 | 35293 ft | 419 kts | 191° |
| 2026-04-18 11:26 | 45.96347 | -3.75250 | 35300 ft | 420 kts | 191° |
| 2026-04-18 11:26 | 45.90567 | -3.76108 | 35282 ft | 420 kts | 191° |
| 2026-04-18 11:27 | 45.84756 | -3.76967 | 35296 ft | 420 kts | 191° |
| 2026-04-18 11:27 | 45.78934 | -3.77826 | 35304 ft | 420 kts | 191° |
| 2026-04-18 11:28 | 45.73122 | -3.78680 | 35312 ft | 420 kts | 191° |
| 2026-04-18 11:28 | 45.67303 | -3.79539 | 35294 ft | 420 kts | 191° |
| 2026-04-18 11:29 | 45.61479 | -3.80384 | 35296 ft | 420 kts | 191° |
| 2026-04-18 11:29 | 45.55653 | -3.81237 | 35300 ft | 420 kts | 191° |
| 2026-04-18 11:30 | 45.49869 | -3.82080 | 35294 ft | 421 kts | 191° |
| 2026-04-18 11:30 | 45.44035 | -3.82921 | 35299 ft | 421 kts | 191° |
| 2026-04-18 11:31 | 45.38197 | -3.83765 | 35297 ft | 421 kts | 191° |
| 2026-04-18 11:31 | 45.32361 | -3.84604 | 35302 ft | 421 kts | 191° |
| 2026-04-18 11:32 | 45.26526 | -3.85449 | 35297 ft | 421 kts | 191° |
| 2026-04-18 11:32 | 45.20740 | -3.86285 | 35310 ft | 421 kts | 191° |
| 2026-04-18 11:33 | 45.14914 | -3.87125 | 35307 ft | 421 kts | 191° |
| 2026-04-18 11:33 | 45.09084 | -3.87972 | 35291 ft | 421 kts | 191° |
| 2026-04-18 11:34 | 45.03243 | -3.88808 | 35294 ft | 422 kts | 191° |
| 2026-04-18 11:34 | 44.97397 | -3.89626 | 35295 ft | 423 kts | 191° |
| 2026-04-18 11:35 | 44.91546 | -3.90460 | 35271 ft | 423 kts | 192° |
| 2026-04-18 11:35 | 44.85685 | -3.91305 | 35275 ft | 423 kts | 192° |
| 2026-04-18 11:36 | 44.79825 | -3.92147 | 35283 ft | 423 kts | 192° |
| 2026-04-18 11:36 | 44.75905 | -3.92706 | 35282 ft | 424 kts | 192° |